Startpagina
METAR-TAF:

METAR-TAF

Vliegvelden :

Larnaca, Cyprus

Luchthaven Larnaca

breedte: 34-53N, lengte: 033-38E, hoogte: 2 m

Actueel weer

Dit bericht is 12 minuten geleden gemaakt, om 16:30 UTC
Wind 6 kt uit het zuidzuidwesten
Temperatuur 23°C
Vochtigheid 47%
Druk 1008 hPa
Zicht 10 km of meer
geen wolken onder 1500 m en geen cumulonimbus

METAR: LCLK 301630Z 21006KT CAVOK 23/11 Q1008 NOSIG

Tijdstip: 19:42 (16:42 UTC)

Verwachting

Dit bericht is 5 uur en het 12 minuten geleden gemaakt, om 11:30 UTC
Verwachting geldig van 30 om 12 UTC tot 01 om 12 UTC
Wind 10 kt uit het zuiden
Zicht 10 km of meer
geen wolken onder 1500 m en geen cumulonimbus
Wijzigt naar
van 30 om 17 UTC tot 30 om 20 UTC
Wind 6 kt uit het noordwesten
Wijzigt naar
van 01 om 07 UTC tot 01 om 11 UTC
Wind 13 kt uit het zuidzuidwesten

TAF: LCLK 301130Z 3012/0112 19010KT CAVOK BECMG 3017/3020 32006KT BECMG 0107/0111 21013KT

Waarnemingen en weersverwachtingen van meer dan 4000 vliegvelden (METAR en TAF).

De beschikbare stations zijn de gele en rode punten op de kaart.

Ga met uw muis naar het station om de naam te zien.

Klik dan om waarnemingen en weersverwachtingen te zien.

kaart wijzigen: klik op de groene knoppen met een zwart kruis om in te zoomen, op de groene knop met een streepje om uit te zoomen of op de groene pijlen voor aangrenzende kaarten.


METAR-TAF: